Saint Clairsville, Ohio
Current Conditions -  °F | °C
As of 6:53 PM on Friday 24 Oct 2014 (Local Time) from KHLG Reporting Station
Clear Clear  
Wind Chill: 55°   Ceiling: Unl
Heat Index: 55°   Visibility: 10mi
Dew Point: 38°   Wind: 5mph
Humidity: 53%   Direction: 250°WSW
Pressure: 30.01"   Gusts: NA
Location:  40.08°N, 80.9°W
Report Text: KHLG 242253Z 25004KT 10SM CLR 13/03 A3001 RMK AO2 SLP171 T01280033
Loading
Personal Weather Stations






























Interactive Weather Map
Tropical Storm Tracking
New forecast layout! Learn more

10-Day Weather Forecast

Advertisements
Track Severe Weather on mobile